Lublin Radawiec, Poland
Current Conditions -  °F | °C
As of 2:30 PM on Tuesday 21 Oct 2014 (Local Time) from EPLB Reporting Station
Broken Clouds Broken Clouds  
Wind Chill: 52°   Ceiling: 3800
Heat Index: 52°   Visibility: 6mi
Dew Point: 48°   Wind: 8mph
Humidity: 88%   Direction: 290°WNW
Pressure: 29.77"   Gusts: NA
Location:  51.2°N, 22.39°E
Report Text: EPLB 211230Z 29007KT 9999 FEW018 BKN038 11/09 Q1008
Loading
Personal Weather Stations






























Interactive Weather Map
Tropical Storm Tracking
New forecast layout! Learn more

10-Day Weather Forecast

Advertisements
Track Severe Weather on mobile